sensor_id;sensor_type;location;lat;lon;timestamp;pressure;altitude;pressure_sealevel;temperature;humidity
77303;BME280;66363;49.828;7.856;2023-03-04T00:01:28;100991.50;;;-1.55;80.37
77303;BME280;66363;49.828;7.856;2023-03-04T00:03:55;100998.50;;;-1.60;81.26
77303;BME280;66363;49.828;7.856;2023-03-04T00:06:21;100996.81;;;-1.66;80.92
77303;BME280;66363;49.828;7.856;2023-03-04T00:08:46;100992.50;;;-1.73;81.87
77303;BME280;66363;49.828;7.856;2023-03-04T00:11:12;100994.28;;;-1.78;81.94
77303;BME280;66363;49.828;7.856;2023-03-04T00:13:38;100997.72;;;-1.76;81.32
77303;BME280;66363;49.828;7.856;2023-03-04T00:16:04;100997.81;;;-1.88;82.14
77303;BME280;66363;49.828;7.856;2023-03-04T00:18:29;100995.22;;;-1.90;81.94
77303;BME280;66363;49.828;7.856;2023-03-04T00:20:56;100999.56;;;-1.93;81.61
77303;BME280;66363;49.828;7.856;2023-03-04T00:23:22;101008.25;;;-1.96;81.99
77303;BME280;66363;49.828;7.856;2023-03-04T00:25:48;101010.84;;;-1.96;82.21
77303;BME280;66363;49.828;7.856;2023-03-04T00:28:13;100994.38;;;-1.96;82.63
77303;BME280;66363;49.828;7.856;2023-03-04T00:30:39;100991.81;;;-1.99;82.19
77303;BME280;66363;49.828;7.856;2023-03-04T00:33:05;100997.00;;;-1.98;81.87
77303;BME280;66363;49.828;7.856;2023-03-04T00:35:30;100994.38;;;-1.95;82.09
77303;BME280;66363;49.828;7.856;2023-03-04T00:37:57;100998.75;;;-2.05;82.72
77303;BME280;66363;49.828;7.856;2023-03-04T00:40:23;100998.75;;;-2.05;82.52
77303;BME280;66363;49.828;7.856;2023-03-04T00:42:49;100998.81;;;-2.09;82.18
77303;BME280;66363;49.828;7.856;2023-03-04T00:45:14;100998.81;;;-2.14;82.40
77303;BME280;66363;49.828;7.856;2023-03-04T00:47:40;101005.78;;;-2.17;82.73
77303;BME280;66363;49.828;7.856;2023-03-04T00:50:06;101000.59;;;-2.22;82.30
77303;BME280;66363;49.828;7.856;2023-03-04T00:52:32;101012.72;;;-2.22;82.72
77303;BME280;66363;49.828;7.856;2023-03-04T00:54:59;101002.34;;;-2.28;82.65
77303;BME280;66363;49.828;7.856;2023-03-04T00:57:25;101004.94;;;-2.28;83.01
77303;BME280;66363;49.828;7.856;2023-03-04T00:59:50;100995.41;;;-2.32;82.77
77303;BME280;66363;49.828;7.856;2023-03-04T01:02:16;100998.06;;;-2.37;83.63
77303;BME280;66363;49.828;7.856;2023-03-04T01:04:42;100989.41;;;-2.36;83.39
77303;BME280;66363;49.828;7.856;2023-03-04T01:07:08;100990.28;;;-2.35;83.74
77303;BME280;66363;49.828;7.856;2023-03-04T01:09:33;100985.06;;;-2.35;83.69
77303;BME280;66363;49.828;7.856;2023-03-04T01:12:00;100984.19;;;-2.34;83.97
77303;BME280;66363;49.828;7.856;2023-03-04T01:14:26;100981.56;;;-2.31;83.77
77303;BME280;66363;49.828;7.856;2023-03-04T01:16:52;100978.97;;;-2.31;84.22
77303;BME280;66363;49.828;7.856;2023-03-04T01:19:18;100990.22;;;-2.28;83.80
77303;BME280;66363;49.828;7.856;2023-03-04T01:21:43;100980.69;;;-2.29;84.16
77303;BME280;66363;49.828;7.856;2023-03-04T01:24:09;100987.66;;;-2.37;83.65
77303;BME280;66363;49.828;7.856;2023-03-04T01:26:35;100972.97;;;-2.41;83.38
77303;BME280;66363;49.828;7.856;2023-03-04T01:29:02;100984.22;;;-2.42;83.84
77303;BME280;66363;49.828;7.856;2023-03-04T01:31:28;100979.91;;;-2.51;83.45
77303;BME280;66363;49.828;7.856;2023-03-04T01:33:54;100973.88;;;-2.54;83.79
77303;BME280;66363;49.828;7.856;2023-03-04T01:36:20;100970.44;;;-2.61;84.16
77303;BME280;66363;49.828;7.856;2023-03-04T01:38:45;100966.13;;;-2.62;84.02
77303;BME280;66363;49.828;7.856;2023-03-04T01:41:12;100969.59;;;-2.64;84.01
77303;BME280;66363;49.828;7.856;2023-03-04T01:43:39;100974.78;;;-2.69;84.13
77303;BME280;66363;49.828;7.856;2023-03-04T01:46:06;100967.00;;;-2.75;84.10
77303;BME280;66363;49.828;7.856;2023-03-04T01:48:33;100966.13;;;-2.72;83.94
77303;BME280;66363;49.828;7.856;2023-03-04T01:50:59;100960.94;;;-2.69;84.16
77303;BME280;66363;49.828;7.856;2023-03-04T01:53:26;100966.13;;;-2.74;84.26
77303;BME280;66363;49.828;7.856;2023-03-04T01:55:53;100971.34;;;-2.76;83.96
77303;BME280;66363;49.828;7.856;2023-03-04T01:58:20;100967.03;;;-2.81;84.36
77303;BME280;66363;49.828;7.856;2023-03-04T02:00:48;100964.47;;;-2.89;84.40
77303;BME280;66363;49.828;7.856;2023-03-04T02:03:17;100959.28;;;-2.96;84.14
77303;BME280;66363;49.828;7.856;2023-03-04T02:05:44;100954.09;;;-2.90;84.78
77303;BME280;66363;49.828;7.856;2023-03-04T02:08:11;100948.03;;;-2.89;84.87
77303;BME280;66363;49.828;7.856;2023-03-04T02:10:38;100945.41;;;-2.86;84.99
77303;BME280;66363;49.828;7.856;2023-03-04T02:13:05;100932.44;;;-2.88;84.93
77303;BME280;66363;49.828;7.856;2023-03-04T02:15:31;100943.69;;;-2.89;84.12
77303;BME280;66363;49.828;7.856;2023-03-04T02:17:57;100934.19;;;-2.94;84.46
77303;BME280;66363;49.828;7.856;2023-03-04T02:20:44;100936.78;;;-2.99;84.71
77303;BME280;66363;49.828;7.856;2023-03-04T02:23:18;100939.38;;;-3.08;84.28
77303;BME280;66363;49.828;7.856;2023-03-04T02:25:49;100933.34;;;-3.07;84.52
77303;BME280;66363;49.828;7.856;2023-03-04T02:28:21;100930.75;;;-3.10;84.90
77303;BME280;66363;49.828;7.856;2023-03-04T02:30:46;100933.31;;;-3.05;85.24
77303;BME280;66363;49.828;7.856;2023-03-04T02:33:16;100924.69;;;-3.08;85.33
77303;BME280;66363;49.828;7.856;2023-03-04T02:35:42;100925.53;;;-3.04;84.90
77303;BME280;66363;49.828;7.856;2023-03-04T02:38:09;100924.69;;;-3.09;85.08
77303;BME280;66363;49.828;7.856;2023-03-04T02:40:35;100927.31;;;-3.12;84.71
77303;BME280;66363;49.828;7.856;2023-03-04T02:43:01;100919.53;;;-3.14;84.51
77303;BME280;66363;49.828;7.856;2023-03-04T02:45:34;100915.22;;;-3.22;84.91
77303;BME280;66363;49.828;7.856;2023-03-04T02:48:00;100919.53;;;-3.23;84.88
77303;BME280;66363;49.828;7.856;2023-03-04T02:50:29;100911.75;;;-3.27;84.94
77303;BME280;66363;49.828;7.856;2023-03-04T02:52:58;100912.63;;;-3.28;85.32
77303;BME280;66363;49.828;7.856;2023-03-04T02:55:24;100913.47;;;-3.35;85.46
77303;BME280;66363;49.828;7.856;2023-03-04T02:57:49;100913.47;;;-3.34;85.12
77303;BME280;66363;49.828;7.856;2023-03-04T03:00:15;100910.06;;;-3.39;85.59
77303;BME280;66363;49.828;7.856;2023-03-04T03:02:42;100913.53;;;-3.43;85.02
77303;BME280;66363;49.828;7.856;2023-03-04T03:05:08;100914.38;;;-3.46;85.18
77303;BME280;66363;49.828;7.856;2023-03-04T03:07:34;100916.97;;;-3.49;85.07
77303;BME280;66363;49.828;7.856;2023-03-04T03:09:59;100915.25;;;-3.51;85.56
77303;BME280;66363;49.828;7.856;2023-03-04T03:12:25;100918.72;;;-3.49;85.53
77303;BME280;66363;49.828;7.856;2023-03-04T03:14:51;100914.38;;;-3.49;85.21
77303;BME280;66363;49.828;7.856;2023-03-04T03:17:17;100909.19;;;-3.50;85.82
77303;BME280;66363;49.828;7.856;2023-03-04T03:19:44;100913.50;;;-3.54;85.52
77303;BME280;66363;49.828;7.856;2023-03-04T03:22:10;100914.38;;;-3.56;86.29
77303;BME280;66363;49.828;7.856;2023-03-04T03:24:35;100892.78;;;-3.66;85.81
77303;BME280;66363;49.828;7.856;2023-03-04T03:27:01;100905.72;;;-3.63;85.91
77303;BME280;66363;49.828;7.856;2023-03-04T03:29:27;100913.50;;;-3.61;86.47
77303;BME280;66363;49.828;7.856;2023-03-04T03:31:52;100910.06;;;-3.60;86.12
77303;BME280;66363;49.828;7.856;2023-03-04T03:34:18;100904.88;;;-3.59;86.47
77303;BME280;66363;49.828;7.856;2023-03-04T03:36:45;100912.66;;;-3.63;85.65
77303;BME280;66363;49.828;7.856;2023-03-04T03:39:10;100911.81;;;-3.70;86.02
77303;BME280;66363;49.828;7.856;2023-03-04T03:41:36;100907.47;;;-3.72;85.85
77303;BME280;66363;49.828;7.856;2023-03-04T03:44:02;100900.56;;;-3.67;86.66
77303;BME280;66363;49.828;7.856;2023-03-04T03:46:28;100907.47;;;-3.72;86.27
77303;BME280;66363;49.828;7.856;2023-03-04T03:48:53;100896.25;;;-3.71;85.75
77303;BME280;66363;49.828;7.856;2023-03-04T03:51:19;100897.13;;;-3.66;85.85
77303;BME280;66363;49.828;7.856;2023-03-04T03:53:46;100903.13;;;-3.60;85.75
77303;BME280;66363;49.828;7.856;2023-03-04T03:56:12;100897.94;;;-3.58;85.57
77303;BME280;66363;49.828;7.856;2023-03-04T03:58:37;100894.50;;;-3.53;85.29
77303;BME280;66363;49.828;7.856;2023-03-04T04:01:03;100900.53;;;-3.52;84.72
77303;BME280;66363;49.828;7.856;2023-03-04T04:03:29;100897.09;;;-3.44;84.84
77303;BME280;66363;49.828;7.856;2023-03-04T04:05:54;100895.34;;;-3.40;84.26
77303;BME280;66363;49.828;7.856;2023-03-04T04:08:20;100897.94;;;-3.45;84.52
77303;BME280;66363;49.828;7.856;2023-03-04T04:10:47;100890.13;;;-3.29;85.09
77303;BME280;66363;49.828;7.856;2023-03-04T04:13:13;100892.72;;;-3.29;84.35
77303;BME280;66363;49.828;7.856;2023-03-04T04:15:39;100904.81;;;-3.25;84.20
77303;BME280;66363;49.828;7.856;2023-03-04T04:18:05;100895.31;;;-3.19;84.83
77303;BME280;66363;49.828;7.856;2023-03-04T04:20:31;100897.91;;;-3.17;83.73
77303;BME280;66363;49.828;7.856;2023-03-04T04:22:56;100897.91;;;-3.17;83.98
77303;BME280;66363;49.828;7.856;2023-03-04T04:25:22;100900.50;;;-3.16;83.76
77303;BME280;66363;49.828;7.856;2023-03-04T04:27:49;100894.41;;;-3.09;83.70
77303;BME280;66363;49.828;7.856;2023-03-04T04:30:15;100893.53;;;-3.06;84.15
77303;BME280;66363;49.828;7.856;2023-03-04T04:32:40;100884.91;;;-3.14;83.34
77303;BME280;66363;49.828;7.856;2023-03-04T04:35:07;100893.53;;;-3.06;83.17
77303;BME280;66363;49.828;7.856;2023-03-04T04:37:33;100895.25;;;-3.08;82.67
77303;BME280;66363;49.828;7.856;2023-03-04T04:39:58;100900.50;;;-3.16;83.72
77303;BME280;66363;49.828;7.856;2023-03-04T04:42:24;100892.66;;;-3.08;83.13
77303;BME280;66363;49.828;7.856;2023-03-04T04:44:51;100891.78;;;-3.02;82.98
77303;BME280;66363;49.828;7.856;2023-03-04T04:47:17;100897.00;;;-3.05;82.48
77303;BME280;66363;49.828;7.856;2023-03-04T04:49:43;100903.91;;;-3.08;82.67
77303;BME280;66363;49.828;7.856;2023-03-04T04:52:08;100897.00;;;-3.05;82.46
77303;BME280;66363;49.828;7.856;2023-03-04T04:54:34;100901.31;;;-3.03;82.95
77303;BME280;66363;49.828;7.856;2023-03-04T04:57:00;100891.78;;;-2.98;83.04
77303;BME280;66363;49.828;7.856;2023-03-04T04:59:26;100902.16;;;-2.90;83.16
77303;BME280;66363;49.828;7.856;2023-03-04T05:01:53;100896.03;;;-2.83;82.51
77303;BME280;66363;49.828;7.856;2023-03-04T05:04:18;100901.22;;;-2.79;83.03
77303;BME280;66363;49.828;7.856;2023-03-04T05:06:44;100908.16;;;-2.81;82.22
77303;BME280;66363;49.828;7.856;2023-03-04T05:09:11;100900.38;;;-2.82;82.66
77303;BME280;66363;49.828;7.856;2023-03-04T05:11:37;100899.47;;;-2.75;82.12
77303;BME280;66363;49.828;7.856;2023-03-04T05:14:02;100902.94;;;-2.73;82.07
77303;BME280;66363;49.828;7.856;2023-03-04T05:16:28;100898.63;;;-2.83;82.43
77303;BME280;66363;49.828;7.856;2023-03-04T05:18:55;100898.69;;;-2.86;82.33
77303;BME280;66363;49.828;7.856;2023-03-04T05:21:21;100890.91;;;-2.88;82.46
77303;BME280;66363;49.828;7.856;2023-03-04T05:23:47;100890.81;;;-2.74;82.19
77303;BME280;66363;49.828;7.856;2023-03-04T05:26:14;100883.88;;;-2.69;83.11
77303;BME280;66363;49.828;7.856;2023-03-04T05:28:41;100895.97;;;-2.60;83.34
77303;BME280;66363;49.828;7.856;2023-03-04T05:31:06;100890.72;;;-2.57;82.54
77303;BME280;66363;49.828;7.856;2023-03-04T05:33:32;100891.59;;;-2.57;82.69
77303;BME280;66363;49.828;7.856;2023-03-04T05:36:01;100887.25;;;-2.52;82.09
77303;BME280;66363;49.828;7.856;2023-03-04T05:38:27;100878.66;;;-2.60;82.59
77303;BME280;66363;49.828;7.856;2023-03-04T05:40:55;100871.69;;;-2.58;82.25
77303;BME280;66363;49.828;7.856;2023-03-04T05:43:22;100895.06;;;-2.55;82.25
77303;BME280;66363;49.828;7.856;2023-03-04T05:45:48;100895.91;;;-2.48;82.05
77303;BME280;66363;49.828;7.856;2023-03-04T05:48:14;100890.69;;;-2.47;82.05
77303;BME280;66363;49.828;7.856;2023-03-04T05:50:40;100896.75;;;-2.43;81.80
77303;BME280;66363;49.828;7.856;2023-03-04T05:53:07;100895.88;;;-2.41;81.62
77303;BME280;66363;49.828;7.856;2023-03-04T05:55:33;100906.25;;;-2.37;82.21
77303;BME280;66363;49.828;7.856;2023-03-04T05:57:58;100902.78;;;-2.36;81.86
77303;BME280;66363;49.828;7.856;2023-03-04T06:00:25;100899.34;;;-2.42;81.77
77303;BME280;66363;49.828;7.856;2023-03-04T06:02:51;100905.41;;;-2.46;81.64
77303;BME280;66363;49.828;7.856;2023-03-04T06:05:16;100901.09;;;-2.48;82.24
77303;BME280;66363;49.828;7.856;2023-03-04T06:07:43;100898.44;;;-2.36;82.33
77303;BME280;66363;49.828;7.856;2023-03-04T06:10:12;100902.72;;;-2.32;82.35
77303;BME280;66363;49.828;7.856;2023-03-04T06:12:38;100905.31;;;-2.32;81.73
77303;BME280;66363;49.828;7.856;2023-03-04T06:15:05;100905.31;;;-2.33;81.42
77303;BME280;66363;49.828;7.856;2023-03-04T06:17:31;100902.69;;;-2.27;81.63
77303;BME280;66363;49.828;7.856;2023-03-04T06:19:56;100907.88;;;-2.23;81.60
77303;BME280;66363;49.828;7.856;2023-03-04T06:22:22;100904.41;;;-2.20;81.41
77303;BME280;66363;49.828;7.856;2023-03-04T06:24:48;100907.00;;;-2.19;81.37
77303;BME280;66363;49.828;7.856;2023-03-04T06:27:15;100910.44;;;-2.15;81.82
77303;BME280;66363;49.828;7.856;2023-03-04T06:29:40;100909.56;;;-2.13;80.99
77303;BME280;66363;49.828;7.856;2023-03-04T06:32:06;100913.03;;;-2.12;81.31
77303;BME280;66363;49.828;7.856;2023-03-04T06:34:32;100918.22;;;-2.12;81.04
77303;BME280;66363;49.828;7.856;2023-03-04T06:36:57;100919.00;;;-2.02;80.38
77303;BME280;66363;49.828;7.856;2023-03-04T06:39:23;100919.88;;;-2.03;81.25
77303;BME280;66363;49.828;7.856;2023-03-04T06:41:49;100916.44;;;-2.07;80.86
77303;BME280;66363;49.828;7.856;2023-03-04T06:44:16;100924.28;;;-2.09;81.59
77303;BME280;66363;49.828;7.856;2023-03-04T06:46:42;100921.59;;;-2.01;81.55
77303;BME280;66363;49.828;7.856;2023-03-04T06:49:08;100929.38;;;-1.98;81.49
77303;BME280;66363;49.828;7.856;2023-03-04T06:51:33;100935.44;;;-1.93;80.83
77303;BME280;66363;49.828;7.856;2023-03-04T06:53:59;100938.00;;;-1.88;80.85
77303;BME280;66363;49.828;7.856;2023-03-04T06:56:25;100942.31;;;-1.84;80.52
77303;BME280;66363;49.828;7.856;2023-03-04T06:58:50;100937.13;;;-1.89;80.13
77303;BME280;66363;49.828;7.856;2023-03-04T07:01:18;100940.56;;;-1.84;81.30
77303;BME280;66363;49.828;7.856;2023-03-04T07:03:45;100944.84;;;-1.80;80.42
77303;BME280;66363;49.828;7.856;2023-03-04T07:06:12;100943.09;;;-1.75;80.25
77303;BME280;66363;49.828;7.856;2023-03-04T07:08:38;100940.44;;;-1.67;80.27
77303;BME280;66363;49.828;7.856;2023-03-04T07:11:04;100942.13;;;-1.61;79.61
77303;BME280;66363;49.828;7.856;2023-03-04T07:13:30;100945.59;;;-1.61;79.68
77303;BME280;66363;49.828;7.856;2023-03-04T07:15:56;100957.72;;;-1.57;80.48
77303;BME280;66363;49.828;7.856;2023-03-04T07:18:23;100955.03;;;-1.51;79.45
77303;BME280;66363;49.828;7.856;2023-03-04T07:20:50;100954.16;;;-1.48;79.27
77303;BME280;66363;49.828;7.856;2023-03-04T07:23:16;100947.03;;;-1.29;80.76
77303;BME280;66363;49.828;7.856;2023-03-04T07:25:42;100954.81;;;-1.25;78.69
77303;BME280;66363;49.828;7.856;2023-03-04T07:28:07;100966.19;;;-1.30;79.19
77303;BME280;66363;49.828;7.856;2023-03-04T07:30:33;100959.22;;;-1.30;79.25
77303;BME280;66363;49.828;7.856;2023-03-04T07:32:59;100960.91;;;-1.26;79.39
77303;BME280;66363;49.828;7.856;2023-03-04T07:35:26;100964.28;;;-1.13;79.10
77303;BME280;66363;49.828;7.856;2023-03-04T07:37:51;100954.69;;;-1.08;79.09
77303;BME280;66363;49.828;7.856;2023-03-04T07:40:17;100975.34;;;-0.91;78.20
77303;BME280;66363;49.828;7.856;2023-03-04T07:42:43;100963.19;;;-0.92;78.27
77303;BME280;66363;49.828;7.856;2023-03-04T07:45:09;100961.53;;;-1.03;78.31
77303;BME280;66363;49.828;7.856;2023-03-04T07:47:35;100968.44;;;-0.97;78.32
77303;BME280;66363;49.828;7.856;2023-03-04T07:50:00;100967.50;;;-0.90;79.18
77303;BME280;66363;49.828;7.856;2023-03-04T07:52:27;100970.06;;;-0.84;78.14
77303;BME280;66363;49.828;7.856;2023-03-04T07:54:53;100970.81;;;-0.76;77.74
77303;BME280;66363;49.828;7.856;2023-03-04T07:57:19;100970.75;;;-0.68;78.31
77303;BME280;66363;49.828;7.856;2023-03-04T07:59:44;100967.19;;;-0.61;77.77
77303;BME280;66363;49.828;7.856;2023-03-04T08:02:10;100963.66;;;-0.55;77.54
77303;BME280;66363;49.828;7.856;2023-03-04T08:04:36;100965.38;;;-0.53;77.74
77303;BME280;66363;49.828;7.856;2023-03-04T08:07:01;100968.69;;;-0.42;77.67
77303;BME280;66363;49.828;7.856;2023-03-04T08:09:28;100963.53;;;-0.46;77.71
77303;BME280;66363;49.828;7.856;2023-03-04T08:11:54;100966.94;;;-0.40;77.73
77303;BME280;66363;49.828;7.856;2023-03-04T08:14:20;100965.19;;;-0.39;78.20
77303;BME280;66363;49.828;7.856;2023-03-04T08:16:45;100963.31;;;-0.28;77.22
77303;BME280;66363;49.828;7.856;2023-03-04T08:19:11;100960.56;;;-0.17;76.74
77303;BME280;66363;49.828;7.856;2023-03-04T08:21:37;100960.47;;;-0.11;77.27
77303;BME280;66363;49.828;7.856;2023-03-04T08:24:03;100968.25;;;-0.07;76.58
77303;BME280;66363;49.828;7.856;2023-03-04T08:26:33;100969.84;;;0.02;76.79
77303;BME280;66363;49.828;7.856;2023-03-04T08:29:00;100968.84;;;0.11;76.05
77303;BME280;66363;49.828;7.856;2023-03-04T08:31:26;100965.44;;;0.07;76.12
77303;BME280;66363;49.828;7.856;2023-03-04T08:33:52;100977.66;;;0.04;75.91
77303;BME280;66363;49.828;7.856;2023-03-04T08:36:18;100975.06;;;0.02;76.00
77303;BME280;66363;49.828;7.856;2023-03-04T08:38:44;100968.00;;;0.09;76.50
77303;BME280;66363;49.828;7.856;2023-03-04T08:41:10;100966.94;;;0.23;76.69
77303;BME280;66363;49.828;7.856;2023-03-04T08:43:37;100975.63;;;0.25;76.12
77303;BME280;66363;49.828;7.856;2023-03-04T08:46:04;100978.84;;;0.41;75.33
77303;BME280;66363;49.828;7.856;2023-03-04T08:48:29;100976.97;;;0.51;75.19
77303;BME280;66363;49.828;7.856;2023-03-04T08:50:55;100979.56;;;0.51;74.95
77303;BME280;66363;49.828;7.856;2023-03-04T08:53:21;100983.69;;;0.64;74.97
77303;BME280;66363;49.828;7.856;2023-03-04T08:55:47;100983.69;;;0.65;75.22
77303;BME280;66363;49.828;7.856;2023-03-04T08:58:15;100982.66;;;0.76;74.54
77303;BME280;66363;49.828;7.856;2023-03-04T09:00:44;100978.91;;;0.90;76.13
77303;BME280;66363;49.828;7.856;2023-03-04T09:03:11;100979.28;;;1.18;75.46
77303;BME280;66363;49.828;7.856;2023-03-04T09:05:36;100979.66;;;1.43;74.44
77303;BME280;66363;49.828;7.856;2023-03-04T09:08:02;100980.97;;;1.64;74.29
77303;BME280;66363;49.828;7.856;2023-03-04T09:10:28;100981.44;;;1.84;72.75
77303;BME280;66363;49.828;7.856;2023-03-04T09:12:53;100974.94;;;2.03;72.21
77303;BME280;66363;49.828;7.856;2023-03-04T09:15:19;100980.03;;;2.08;73.13
77303;BME280;66363;49.828;7.856;2023-03-04T09:17:46;100974.47;;;2.23;73.46
77303;BME280;66363;49.828;7.856;2023-03-04T09:20:12;100982.75;;;2.42;72.88
77303;BME280;66363;49.828;7.856;2023-03-04T09:22:38;100983.09;;;2.64;72.01
77303;BME280;66363;49.828;7.856;2023-03-04T09:25:05;100983.53;;;2.83;71.48
77303;BME280;66363;49.828;7.856;2023-03-04T09:27:31;100981.25;;;3.03;69.98
77303;BME280;66363;49.828;7.856;2023-03-04T09:29:57;100985.34;;;3.13;70.61
77303;BME280;66363;49.828;7.856;2023-03-04T09:32:22;100983.97;;;3.32;69.97
77303;BME280;66363;49.828;7.856;2023-03-04T09:34:49;100980.78;;;3.52;69.25
77303;BME280;66363;49.828;7.856;2023-03-04T09:37:15;100971.81;;;3.61;66.61
77303;BME280;66363;49.828;7.856;2023-03-04T09:39:41;100977.53;;;3.73;66.95
77303;BME280;66363;49.828;7.856;2023-03-04T09:42:08;100973.97;;;3.76;66.00
77303;BME280;66363;49.828;7.856;2023-03-04T09:44:37;100965.78;;;3.87;66.00
77303;BME280;66363;49.828;7.856;2023-03-04T09:47:08;100969.03;;;3.95;66.07
77303;BME280;66363;49.828;7.856;2023-03-04T09:49:37;100969.63;;;4.04;65.97
77303;BME280;66363;49.828;7.856;2023-03-04T09:52:12;100972.44;;;4.26;65.73
77303;BME280;66363;49.828;7.856;2023-03-04T09:54:57;100967.97;;;4.30;65.44
77303;BME280;66363;49.828;7.856;2023-03-04T09:57:41;100972.09;;;4.38;64.67
77303;BME280;66363;49.828;7.856;2023-03-04T10:00:13;100971.03;;;4.42;64.59
77303;BME280;66363;49.828;7.856;2023-03-04T10:02:47;100970.72;;;4.53;64.73
77303;BME280;66363;49.828;7.856;2023-03-04T10:05:20;100970.19;;;4.42;64.44
77303;BME280;66363;49.828;7.856;2023-03-04T10:07:54;100968.59;;;4.38;64.51
77303;BME280;66363;49.828;7.856;2023-03-04T10:10:25;100980.66;;;4.43;63.76
77303;BME280;66363;49.828;7.856;2023-03-04T10:12:52;100969.47;;;4.38;63.61
77303;BME280;66363;49.828;7.856;2023-03-04T10:15:25;100972.59;;;4.50;63.52
77303;BME280;66363;49.828;7.856;2023-03-04T10:17:59;100971.28;;;4.63;63.58
77303;BME280;66363;49.828;7.856;2023-03-04T10:20:34;100970.75;;;4.52;63.75
77303;BME280;66363;49.828;7.856;2023-03-04T10:23:13;100966.03;;;4.63;63.51
77303;BME280;66363;49.828;7.856;2023-03-04T10:25:42;100966.38;;;4.52;63.00
77303;BME280;66363;49.828;7.856;2023-03-04T10:28:12;100962.41;;;4.67;63.41
77303;BME280;66363;49.828;7.856;2023-03-04T10:30:50;100964.03;;;4.69;63.47
77303;BME280;66363;49.828;7.856;2023-03-04T10:33:20;100958.50;;;4.78;63.07
77303;BME280;66363;49.828;7.856;2023-03-04T10:35:51;100961.41;;;4.96;62.31
77303;BME280;66363;49.828;7.856;2023-03-04T10:38:20;100956.91;;;4.99;62.39
77303;BME280;66363;49.828;7.856;2023-03-04T10:40:46;100959.44;;;5.02;62.07
77303;BME280;66363;49.828;7.856;2023-03-04T10:43:16;100957.47;;;4.83;62.61
77303;BME280;66363;49.828;7.856;2023-03-04T10:45:43;100959.75;;;4.93;62.44
77303;BME280;66363;49.828;7.856;2023-03-04T10:48:18;100953.50;;;4.96;61.68
77303;BME280;66363;49.828;7.856;2023-03-04T10:50:45;100962.38;;;4.93;62.13
77303;BME280;66363;49.828;7.856;2023-03-04T10:53:26;100961.16;;;5.03;62.02
77303;BME280;66363;49.828;7.856;2023-03-04T10:55:53;100953.63;;;4.93;62.59
77303;BME280;66363;49.828;7.856;2023-03-04T10:58:20;100949.97;;;5.22;61.59
77303;BME280;66363;49.828;7.856;2023-03-04T11:00:59;100951.22;;;5.11;61.73
77303;BME280;66363;49.828;7.856;2023-03-04T11:03:29;100943.28;;;5.13;61.87
77303;BME280;66363;49.828;7.856;2023-03-04T11:06:08;100941.81;;;5.29;62.03
77303;BME280;66363;49.828;7.856;2023-03-04T11:08:38;100942.41;;;5.37;60.88
77303;BME280;66363;49.828;7.856;2023-03-04T11:11:21;100933.16;;;5.26;61.04
77303;BME280;66363;49.828;7.856;2023-03-04T11:13:50;100933.13;;;5.27;60.92
77303;BME280;66363;49.828;7.856;2023-03-04T11:16:24;100938.50;;;5.47;60.82
77303;BME280;66363;49.828;7.856;2023-03-04T11:18:52;100934.13;;;5.71;60.22
77303;BME280;66363;49.828;7.856;2023-03-04T11:21:20;100933.59;;;5.85;60.24
77303;BME280;66363;49.828;7.856;2023-03-04T11:23:50;100929.19;;;5.86;59.65
77303;BME280;66363;49.828;7.856;2023-03-04T11:26:21;100931.03;;;6.07;58.66
77303;BME280;66363;49.828;7.856;2023-03-04T11:28:52;100927.16;;;5.94;59.32
77303;BME280;66363;49.828;7.856;2023-03-04T11:31:22;100920.53;;;5.82;58.66
77303;BME280;66363;49.828;7.856;2023-03-04T11:33:55;100924.44;;;5.72;59.53
77303;BME280;66363;49.828;7.856;2023-03-04T11:36:30;100917.00;;;5.60;59.88
77303;BME280;66363;49.828;7.856;2023-03-04T11:39:00;100920.44;;;5.62;60.32
77303;BME280;66363;49.828;7.856;2023-03-04T11:41:31;100918.38;;;5.70;59.78
77303;BME280;66363;49.828;7.856;2023-03-04T11:43:59;100911.47;;;5.67;59.79
77303;BME280;66363;49.828;7.856;2023-03-04T11:52:15;100910.06;;;5.57;60.75
77303;BME280;66363;49.828;7.856;2023-03-04T11:55:04;100906.16;;;5.45;60.57
77303;BME280;66363;49.828;7.856;2023-03-04T11:57:44;100914.81;;;5.47;60.57
77303;BME280;66363;49.828;7.856;2023-03-04T12:00:24;100903.31;;;5.50;60.73
77303;BME280;66363;49.828;7.856;2023-03-04T12:03:11;100902.94;;;5.61;60.51
77303;BME280;66363;49.828;7.856;2023-03-04T12:05:45;100902.81;;;5.64;60.43
77303;BME280;66363;49.828;7.856;2023-03-04T12:08:33;100896.91;;;5.57;60.86
77303;BME280;66363;49.828;7.856;2023-03-04T12:11:05;100896.53;;;5.68;60.41
77303;BME280;66363;49.828;7.856;2023-03-04T12:13:57;100891.38;;;5.65;59.98
77303;BME280;66363;49.828;7.856;2023-03-04T12:16:45;100878.38;;;5.60;59.92
77303;BME280;66363;49.828;7.856;2023-03-04T12:19:26;100882.84;;;5.58;60.16
77303;BME280;66363;49.828;7.856;2023-03-04T12:25:06;100875.69;;;5.62;60.03
77303;BME280;66363;49.828;7.856;2023-03-04T12:27:39;100878.16;;;5.66;60.59
77303;BME280;66363;49.828;7.856;2023-03-04T12:30:22;100885.94;;;5.69;60.42
77303;BME280;66363;49.828;7.856;2023-03-04T12:32:54;100878.94;;;5.68;60.73
77303;BME280;66363;49.828;7.856;2023-03-04T12:35:32;100875.91;;;5.56;60.25
77303;BME280;66363;49.828;7.856;2023-03-04T12:38:28;100880.16;;;5.60;59.45
77303;BME280;66363;49.828;7.856;2023-03-04T12:41:01;100879.66;;;5.72;59.86
77303;BME280;66363;49.828;7.856;2023-03-04T12:43:41;100875.63;;;5.63;59.89
77303;BME280;66363;49.828;7.856;2023-03-04T12:46:19;100868.09;;;5.76;59.68
77303;BME280;66363;49.828;7.856;2023-03-04T12:48:53;100865.72;;;5.70;59.45
77303;BME280;66363;49.828;7.856;2023-03-04T12:51:30;100863.09;;;5.70;59.48
77303;BME280;66363;49.828;7.856;2023-03-04T12:54:15;100854.13;;;5.74;59.04
77303;BME280;66363;49.828;7.856;2023-03-04T12:56:44;100854.94;;;5.76;59.63
77303;BME280;66363;49.828;7.856;2023-03-04T12:59:18;100850.97;;;5.88;59.17
77303;BME280;66363;49.828;7.856;2023-03-04T13:01:49;100852.56;;;5.93;58.64
77303;BME280;66363;49.828;7.856;2023-03-04T13:04:22;100845.38;;;5.97;58.54
77303;BME280;66363;49.828;7.856;2023-03-04T13:07:03;100845.97;;;6.03;58.58